createdAt,value
2023-01-10T00:00:57.337Z,100191.03
2023-01-10T00:03:24.168Z,100186.94
2023-01-10T00:05:50.998Z,100191.16
2023-01-10T00:08:18.258Z,100189.88
2023-01-10T00:10:45.135Z,100192.25
2023-01-10T00:13:23.446Z,100190.97
2023-01-10T00:15:55.968Z,100195.75
2023-01-10T00:18:23.410Z,100195.31
2023-01-10T00:20:50.317Z,100202.91
2023-01-10T00:23:18.615Z,100206.97
2023-01-10T00:25:46.589Z,100204.72
2023-01-10T00:28:23.820Z,100193.56
2023-01-10T00:31:01.885Z,100204.09
2023-01-10T00:33:32.231Z,100200.72
2023-01-10T00:36:00.900Z,100192.09
2023-01-10T00:38:30.610Z,100188.72
2023-01-10T00:40:58.095Z,100190.81
2023-01-10T00:43:43.913Z,100190.22
2023-01-10T00:46:11.938Z,100192.19
2023-01-10T00:48:38.865Z,100193.56
2023-01-10T00:51:06.116Z,100188.34
2023-01-10T00:53:33.139Z,100186.78
2023-01-10T00:55:59.970Z,100187.75
2023-01-10T00:58:26.726Z,100195.91
2023-01-10T01:00:53.575Z,100190.69
2023-01-10T01:03:23.631Z,100198.00
2023-01-10T01:05:50.805Z,100199.00
2023-01-10T01:08:18.952Z,100197.28
2023-01-10T01:10:46.670Z,100194.03
2023-01-10T01:13:19.954Z,100197.69
2023-01-10T01:15:47.785Z,100199.25
2023-01-10T01:18:18.797Z,100203.63
2023-01-10T01:20:46.062Z,100195.31
2023-01-10T01:23:13.609Z,100175.63
2023-01-10T01:25:41.036Z,100176.22
2023-01-10T01:28:08.343Z,100188.47
2023-01-10T01:30:35.210Z,100189.91
2023-01-10T01:33:02.075Z,100181.75
2023-01-10T01:35:29.121Z,100181.47
2023-01-10T01:37:56.232Z,100164.28
2023-01-10T01:40:23.570Z,100164.88
2023-01-10T01:42:55.807Z,100166.56
2023-01-10T01:45:37.539Z,100185.75
2023-01-10T01:48:19.356Z,100179.56
2023-01-10T01:50:59.743Z,100180.00
2023-01-10T01:53:44.060Z,100190.16
2023-01-10T01:56:39.040Z,100197.94
2023-01-10T01:59:16.507Z,100203.47
2023-01-10T02:01:48.991Z,100207.56
2023-01-10T02:04:25.313Z,100197.41
2023-01-10T02:06:57.201Z,100193.34
2023-01-10T02:09:42.940Z,100183.22
2023-01-10T02:12:10.414Z,100179.28
2023-01-10T02:14:38.654Z,100168.13
2023-01-10T02:17:06.122Z,100171.53
2023-01-10T02:19:52.183Z,100163.91
2023-01-10T02:22:30.973Z,100159.41
2023-01-10T02:25:28.901Z,100165.34
2023-01-10T02:28:23.120Z,100156.31
2023-01-10T02:31:26.442Z,100170.16
2023-01-10T02:34:53.007Z,100169.03
2023-01-10T02:37:58.866Z,100160.28
2023-01-10T02:40:52.665Z,100152.09
2023-01-10T02:43:31.876Z,100166.66
2023-01-10T02:46:05.073Z,100162.97
2023-01-10T02:48:32.093Z,100158.31
2023-01-10T02:51:01.750Z,100165.06
2023-01-10T02:53:45.755Z,100157.75
2023-01-10T02:56:31.146Z,100147.88
2023-01-10T02:59:39.024Z,100133.06
2023-01-10T03:02:36.613Z,100122.34
2023-01-10T03:05:08.594Z,100128.28
2023-01-10T03:07:54.595Z,100122.75
2023-01-10T03:11:08.400Z,100118.53
2023-01-10T03:13:47.133Z,100109.22
2023-01-10T03:16:18.823Z,100100.06
2023-01-10T03:18:53.513Z,100105.41
2023-01-10T03:21:22.993Z,100108.09
2023-01-10T03:23:55.020Z,100104.84
2023-01-10T03:26:31.363Z,100097.09
2023-01-10T03:29:06.977Z,100101.31
2023-01-10T03:31:44.424Z,100104.28
2023-01-10T03:34:12.116Z,100102.59
2023-01-10T03:37:18.359Z,100110.06
2023-01-10T03:40:01.108Z,100105.69
2023-01-10T03:43:15.868Z,100096.53
2023-01-10T03:46:09.927Z,100074.66
2023-01-10T03:48:41.741Z,100068.88
2023-01-10T03:51:09.845Z,100053.50
2023-01-10T03:53:39.329Z,100054.34
2023-01-10T03:56:07.832Z,100047.00
2023-01-10T03:58:34.641Z,100042.31
2023-01-10T04:01:01.479Z,100037.53
2023-01-10T04:03:28.359Z,100047.41
2023-01-10T04:05:55.118Z,100050.78
2023-01-10T04:08:21.895Z,100061.25
2023-01-10T04:10:51.776Z,100065.72
2023-01-10T04:13:18.684Z,100044.56
2023-01-10T04:15:45.461Z,100039.19
2023-01-10T04:18:13.196Z,100042.31
2023-01-10T04:20:40.350Z,100036.25
2023-01-10T04:23:07.122Z,100034.41
2023-01-10T04:25:33.883Z,100024.09
2023-01-10T04:28:00.649Z,100023.91
2023-01-10T04:30:28.938Z,100035.38
2023-01-10T04:32:56.056Z,100037.75
2023-01-10T04:35:22.893Z,100043.09
2023-01-10T04:37:49.665Z,100037.47
2023-01-10T04:40:19.624Z,100032.94
2023-01-10T04:42:46.786Z,100029.28
2023-01-10T04:45:17.801Z,100014.44
2023-01-10T04:47:51.129Z,99991.56
2023-01-10T04:50:18.495Z,99991.72
2023-01-10T04:52:45.363Z,100002.97
2023-01-10T04:55:12.384Z,100006.22
2023-01-10T04:57:39.220Z,100001.84
2023-01-10T05:00:07.281Z,100007.78
2023-01-10T05:02:34.176Z,100001.25
2023-01-10T05:05:01.085Z,99995.06
2023-01-10T05:07:28.049Z,100005.31
2023-01-10T05:09:54.804Z,99989.94
2023-01-10T05:12:21.575Z,99996.53
2023-01-10T05:14:48.697Z,99981.13
2023-01-10T05:17:15.493Z,99979.53
2023-01-10T05:19:42.265Z,99976.56
2023-01-10T05:22:09.252Z,99976.25
2023-01-10T05:24:36.033Z,99979.47
2023-01-10T05:27:03.193Z,99971.00
2023-01-10T05:29:29.977Z,99966.59
2023-01-10T05:31:57.019Z,99965.31
2023-01-10T05:34:24.001Z,99955.28
2023-01-10T05:36:50.813Z,99950.75
2023-01-10T05:39:17.619Z,99951.59
2023-01-10T05:41:44.892Z,99945.25
2023-01-10T05:44:12.770Z,99938.03
2023-01-10T05:46:40.677Z,99936.16
2023-01-10T05:49:07.446Z,99937.88
2023-01-10T05:51:35.567Z,99916.06
2023-01-10T05:54:02.458Z,99917.22
2023-01-10T05:56:29.505Z,99906.34
2023-01-10T05:59:05.307Z,99900.66
2023-01-10T06:01:34.749Z,99889.75
2023-01-10T06:04:01.589Z,99891.59
2023-01-10T06:06:28.335Z,99888.78
2023-01-10T06:08:56.677Z,99878.88
2023-01-10T06:11:29.275Z,99870.81
2023-01-10T06:13:59.749Z,99864.47
2023-01-10T06:16:26.517Z,99864.13
2023-01-10T06:18:53.281Z,99850.72
2023-01-10T06:21:20.551Z,99850.56
2023-01-10T06:23:47.407Z,99849.41
2023-01-10T06:26:14.266Z,99833.97
2023-01-10T06:28:43.851Z,99816.19
2023-01-10T06:31:11.489Z,99820.53
2023-01-10T06:33:39.127Z,99816.19
2023-01-10T06:36:06.422Z,99805.13
2023-01-10T06:38:33.214Z,99792.84
2023-01-10T06:41:13.063Z,99788.50
2023-01-10T06:43:42.139Z,99787.47
2023-01-10T06:46:10.249Z,99777.56
2023-01-10T06:48:37.861Z,99768.53
2023-01-10T06:51:06.080Z,99763.16
2023-01-10T06:53:33.001Z,99749.72
2023-01-10T06:55:59.747Z,99729.09
2023-01-10T06:58:26.520Z,99726.94
2023-01-10T07:00:53.408Z,99726.56
2023-01-10T07:03:20.789Z,99704.59
2023-01-10T07:05:47.760Z,99694.69
2023-01-10T07:08:14.517Z,99685.31
2023-01-10T07:10:42.887Z,99683.66
2023-01-10T07:13:10.450Z,99672.56
2023-01-10T07:15:37.652Z,99668.22
2023-01-10T07:18:04.492Z,99667.19
2023-01-10T07:20:31.439Z,99656.44
2023-01-10T07:23:01.049Z,99646.72
2023-01-10T07:25:30.196Z,99646.56
2023-01-10T07:27:57.787Z,99634.47
2023-01-10T07:30:26.210Z,99617.56
2023-01-10T07:32:55.875Z,99609.50
2023-01-10T07:35:23.544Z,99604.94
2023-01-10T07:37:50.367Z,99595.72
2023-01-10T07:40:17.991Z,99594.88
2023-01-10T07:42:44.779Z,99598.41
2023-01-10T07:45:11.773Z,99600.41
2023-01-10T07:47:38.561Z,99587.34
2023-01-10T07:50:06.213Z,99584.66
2023-01-10T07:52:34.178Z,99563.16
2023-01-10T07:55:00.990Z,99559.47
2023-01-10T07:57:27.813Z,99545.19
2023-01-10T07:59:54.589Z,99534.97
2023-01-10T08:02:21.529Z,99525.25
2023-01-10T08:04:48.535Z,99519.16
2023-01-10T08:07:15.331Z,99519.69
2023-01-10T08:09:42.078Z,99510.31
2023-01-10T08:12:08.885Z,99498.03
2023-01-10T08:14:35.695Z,99488.81
2023-01-10T08:17:02.473Z,99476.06
2023-01-10T08:19:29.440Z,99469.50
2023-01-10T08:21:56.429Z,99461.13
2023-01-10T08:24:23.301Z,99462.78
2023-01-10T08:26:50.251Z,99458.22
2023-01-10T08:29:17.032Z,99461.59
2023-01-10T08:31:43.854Z,99445.31
2023-01-10T08:34:13.924Z,99437.06
2023-01-10T08:36:40.964Z,99423.31
2023-01-10T08:39:08.006Z,99422.78
2023-01-10T08:41:34.908Z,99403.00
2023-01-10T08:44:02.073Z,99412.22
2023-01-10T08:46:28.993Z,99389.53
2023-01-10T08:48:55.780Z,99389.19
2023-01-10T08:51:23.095Z,99393.38
2023-01-10T08:53:49.986Z,99394.03
2023-01-10T08:56:16.969Z,99363.31
2023-01-10T08:58:43.813Z,99357.41
2023-01-10T09:01:12.139Z,99353.19
2023-01-10T09:03:40.037Z,99338.38
2023-01-10T09:06:08.784Z,99333.00
2023-01-10T09:08:36.305Z,99325.09
2023-01-10T09:11:03.825Z,99335.31
2023-01-10T09:13:30.991Z,99325.22
2023-01-10T09:15:59.245Z,99334.97
2023-01-10T09:18:26.618Z,99335.28
2023-01-10T09:20:54.324Z,99332.25
2023-01-10T09:23:23.257Z,99320.13
2023-01-10T09:25:53.517Z,99329.53
2023-01-10T09:28:22.402Z,99325.66
2023-01-10T09:30:49.275Z,99318.06
2023-01-10T09:33:16.440Z,99299.72
2023-01-10T09:35:44.335Z,99291.13
2023-01-10T09:38:16.526Z,99288.06
2023-01-10T09:41:29.462Z,99281.00
2023-01-10T09:44:14.086Z,99284.66
2023-01-10T09:47:05.989Z,99281.41
2023-01-10T09:49:41.884Z,99281.25
2023-01-10T09:52:22.675Z,99276.34
2023-01-10T09:54:52.597Z,99272.94
2023-01-10T09:57:22.771Z,99254.94
2023-01-10T09:59:51.956Z,99248.34
2023-01-10T10:02:40.393Z,99239.72
2023-01-10T10:05:18.548Z,99228.59
2023-01-10T10:07:47.561Z,99227.38
2023-01-10T10:10:28.135Z,99210.06
2023-01-10T10:13:05.839Z,99215.25
2023-01-10T10:15:50.369Z,99213.69
2023-01-10T10:18:21.645Z,99217.03
2023-01-10T10:21:10.741Z,99207.91
2023-01-10T10:24:14.231Z,99216.31
2023-01-10T10:27:00.448Z,99219.81
2023-01-10T10:30:05.016Z,99216.59
2023-01-10T10:33:04.123Z,99211.84
2023-01-10T10:35:37.641Z,99212.50
2023-01-10T10:38:19.357Z,99209.25
2023-01-10T10:40:47.623Z,99199.78
2023-01-10T10:43:22.015Z,99187.81
2023-01-10T10:45:59.074Z,99185.38
2023-01-10T10:48:38.444Z,99186.22
2023-01-10T10:51:25.898Z,99194.56
2023-01-10T10:53:53.869Z,99185.13
2023-01-10T10:56:25.557Z,99183.06
2023-01-10T10:58:56.096Z,99170.31
2023-01-10T11:01:26.364Z,99168.91
2023-01-10T11:04:01.844Z,99157.94
2023-01-10T11:06:33.956Z,99161.75
2023-01-10T11:09:04.204Z,99168.44
2023-01-10T11:11:36.246Z,99157.28
2023-01-10T11:14:07.343Z,99145.09
2023-01-10T11:16:40.664Z,99152.22
2023-01-10T11:19:30.657Z,99148.97
2023-01-10T11:22:02.032Z,99131.19
2023-01-10T11:24:52.585Z,99128.31
2023-01-10T11:27:27.463Z,99125.66
2023-01-10T11:30:00.390Z,99115.16
2023-01-10T11:32:52.020Z,99112.50
2023-01-10T11:35:31.308Z,99107.00
2023-01-10T11:38:22.215Z,99105.38
2023-01-10T11:41:18.291Z,99100.44
2023-01-10T11:43:45.220Z,99101.72
2023-01-10T11:46:26.006Z,99105.69
2023-01-10T11:49:19.696Z,99084.09
2023-01-10T11:51:52.837Z,99081.22
2023-01-10T11:54:28.105Z,99076.47
2023-01-10T11:57:08.924Z,99080.25
2023-01-10T11:59:36.093Z,99062.63
2023-01-10T12:02:29.775Z,99069.34
2023-01-10T12:05:01.012Z,99066.84
2023-01-10T12:07:28.198Z,99061.25
2023-01-10T12:09:56.767Z,99052.81
2023-01-10T12:12:34.374Z,99049.50
2023-01-10T12:15:29.356Z,99037.50
2023-01-10T12:18:00.260Z,99035.00
2023-01-10T12:20:30.546Z,99026.50
2023-01-10T12:23:08.116Z,99013.88
2023-01-10T12:25:41.561Z,99012.06
2023-01-10T12:28:21.867Z,99003.56
2023-01-10T12:30:53.336Z,98996.09
2023-01-10T12:33:30.221Z,98990.28
2023-01-10T12:36:13.297Z,98998.22
2023-01-10T12:39:05.977Z,99005.28
2023-01-10T12:42:00.548Z,98988.25
2023-01-10T12:44:41.992Z,98978.91
2023-01-10T12:47:35.355Z,98983.50
2023-01-10T12:50:21.125Z,98982.06
2023-01-10T12:53:09.180Z,98983.31
2023-01-10T12:55:42.443Z,98972.50
2023-01-10T12:58:46.112Z,98973.31
2023-01-10T13:01:17.907Z,98978.75
2023-01-10T13:03:50.889Z,98980.84
2023-01-10T13:06:30.530Z,98970.44
2023-01-10T13:09:04.359Z,98965.44
2023-01-10T13:11:38.183Z,98954.22
2023-01-10T13:14:06.369Z,98946.72
2023-01-10T13:17:04.067Z,98922.16
2023-01-10T13:19:31.297Z,98906.34
2023-01-10T13:22:21.720Z,98916.31
2023-01-10T13:25:25.230Z,98894.47
2023-01-10T13:28:03.512Z,98908.19
2023-01-10T13:30:37.740Z,98906.75
2023-01-10T13:33:46.582Z,98897.56
2023-01-10T13:36:21.308Z,98872.16
2023-01-10T13:38:55.910Z,98885.84
2023-01-10T13:41:43.088Z,98876.50
2023-01-10T13:44:14.764Z,98872.09
2023-01-10T13:46:46.026Z,98872.06
2023-01-10T13:49:12.789Z,98879.56
2023-01-10T13:52:27.817Z,98861.03
2023-01-10T13:55:21.495Z,98857.41
2023-01-10T13:58:18.170Z,98852.41
2023-01-10T14:01:07.579Z,98855.09
2023-01-10T14:03:53.590Z,98849.22
2023-01-10T14:06:41.082Z,98829.19
2023-01-10T14:09:14.221Z,98822.28
2023-01-10T14:11:44.066Z,98826.00
2023-01-10T14:14:26.175Z,98833.03
2023-01-10T14:16:58.498Z,98808.81
2023-01-10T14:19:31.548Z,98813.34
2023-01-10T14:22:02.283Z,98808.72
2023-01-10T14:24:45.408Z,98803.28
2023-01-10T14:27:18.035Z,98815.78
2023-01-10T14:30:04.389Z,98806.38
2023-01-10T14:32:38.482Z,98792.16
2023-01-10T14:35:10.256Z,98797.16
2023-01-10T14:37:44.395Z,98796.53
2023-01-10T14:40:45.405Z,98798.78
2023-01-10T14:43:24.918Z,98802.28
2023-01-10T14:46:26.559Z,98807.53
2023-01-10T14:48:55.316Z,98809.00
2023-01-10T14:51:32.093Z,98802.72
2023-01-10T14:54:10.094Z,98803.78
2023-01-10T14:56:41.997Z,98800.63
2023-01-10T14:59:37.093Z,98782.69
2023-01-10T15:02:23.539Z,98784.34
2023-01-10T15:04:57.038Z,98790.84
2023-01-10T15:07:25.796Z,98778.91
2023-01-10T15:10:03.009Z,98775.16
2023-01-10T15:12:35.407Z,98769.31
2023-01-10T15:15:20.206Z,98774.72
2023-01-10T15:17:47.845Z,98769.66
2023-01-10T15:20:19.673Z,98770.34
2023-01-10T15:22:54.415Z,98754.25
2023-01-10T15:25:21.125Z,98759.66
2023-01-10T15:27:50.477Z,98754.63
2023-01-10T15:30:30.352Z,98752.28
2023-01-10T15:33:05.653Z,98733.28
2023-01-10T15:35:36.476Z,98734.72
2023-01-10T15:38:17.473Z,98734.50
2023-01-10T15:40:44.928Z,98738.28
2023-01-10T15:43:17.782Z,98734.03
2023-01-10T15:45:46.797Z,98730.50
2023-01-10T15:48:37.518Z,98723.78
2023-01-10T15:51:14.651Z,98715.66
2023-01-10T15:54:07.296Z,98706.47
2023-01-10T15:56:42.320Z,98706.84
2023-01-10T15:59:40.322Z,98698.50
2023-01-10T16:02:32.539Z,98696.59
2023-01-10T16:05:17.960Z,98684.94
2023-01-10T16:07:47.147Z,98683.25
2023-01-10T16:10:25.361Z,98662.16
2023-01-10T16:13:11.320Z,98681.16
2023-01-10T16:15:44.481Z,98662.16
2023-01-10T16:18:12.455Z,98662.75
2023-01-10T16:20:47.324Z,98664.88
2023-01-10T16:23:29.522Z,98664.88
2023-01-10T16:26:00.295Z,98654.00
2023-01-10T16:28:30.992Z,98647.53
2023-01-10T16:30:58.141Z,98638.81
2023-01-10T16:33:27.980Z,98629.59
2023-01-10T16:35:57.867Z,98633.59
2023-01-10T16:38:27.736Z,98625.09
2023-01-10T16:41:21.603Z,98606.09
2023-01-10T16:43:49.707Z,98594.19
2023-01-10T16:46:16.677Z,98595.63
2023-01-10T16:48:47.536Z,98599.16
2023-01-10T16:51:28.514Z,98588.09
2023-01-10T16:53:56.146Z,98598.56
2023-01-10T16:56:26.548Z,98597.50
2023-01-10T16:58:54.699Z,98599.59
2023-01-10T17:01:25.495Z,98586.75
2023-01-10T17:03:54.259Z,98584.84
2023-01-10T17:06:21.408Z,98570.25
2023-01-10T17:08:49.746Z,98572.19
2023-01-10T17:11:25.992Z,98556.53
2023-01-10T17:13:53.682Z,98542.97
2023-01-10T17:16:20.910Z,98531.75
2023-01-10T17:18:48.467Z,98538.47
2023-01-10T17:21:19.505Z,98545.16
2023-01-10T17:23:47.099Z,98543.88
2023-01-10T17:26:17.436Z,98548.72
2023-01-10T17:28:46.694Z,98550.84
2023-01-10T17:31:13.506Z,98571.09
2023-01-10T17:33:40.286Z,98565.66
2023-01-10T17:36:07.787Z,98561.53
2023-01-10T17:38:34.560Z,98554.00
2023-01-10T17:41:02.274Z,98557.16
2023-01-10T17:43:30.793Z,98558.81
2023-01-10T17:46:00.971Z,98547.16
2023-01-10T17:48:27.788Z,98543.00
2023-01-10T17:51:00.378Z,98547.38
2023-01-10T17:53:27.805Z,98536.53
2023-01-10T17:55:55.316Z,98544.06
2023-01-10T17:58:22.400Z,98539.91
2023-01-10T18:00:49.500Z,98547.81
2023-01-10T18:03:16.900Z,98543.09
2023-01-10T18:05:58.836Z,98532.47
2023-01-10T18:08:26.949Z,98542.88
2023-01-10T18:11:00.531Z,98540.97
2023-01-10T18:13:31.584Z,98516.56
2023-01-10T18:15:59.884Z,98528.09
2023-01-10T18:18:28.096Z,98523.53
2023-01-10T18:20:58.297Z,98510.34
2023-01-10T18:23:26.946Z,98516.56
2023-01-10T18:26:10.160Z,98527.66
2023-01-10T18:28:42.124Z,98520.09
2023-01-10T18:31:18.859Z,98510.34
2023-01-10T18:33:47.860Z,98507.16
2023-01-10T18:36:21.887Z,98515.28
2023-01-10T18:38:49.337Z,98505.50
2023-01-10T18:41:18.190Z,98510.44
2023-01-10T18:43:46.332Z,98501.50
2023-01-10T18:46:18.689Z,98508.81
2023-01-10T18:48:46.624Z,98500.69
2023-01-10T18:51:15.097Z,98499.00
2023-01-10T18:53:43.057Z,98503.53
2023-01-10T18:56:10.379Z,98511.41
2023-01-10T18:58:40.745Z,98513.91
2023-01-10T19:01:16.277Z,98514.28
2023-01-10T19:03:43.867Z,98515.94
2023-01-10T19:06:16.064Z,98516.28
2023-01-10T19:08:45.074Z,98526.69
2023-01-10T19:11:15.713Z,98525.16
2023-01-10T19:13:44.768Z,98544.16
2023-01-10T19:16:17.211Z,98547.47
2023-01-10T19:18:49.497Z,98537.09
2023-01-10T19:21:16.769Z,98532.03
2023-01-10T19:23:46.463Z,98536.38
2023-01-10T19:26:13.928Z,98549.03
2023-01-10T19:28:43.973Z,98553.03
2023-01-10T19:31:20.435Z,98563.66
2023-01-10T19:33:48.315Z,98612.28
2023-01-10T19:36:16.727Z,98639.09
2023-01-10T19:38:44.547Z,98644.63
2023-01-10T19:41:12.029Z,98628.28
2023-01-10T19:43:39.263Z,98649.34
2023-01-10T19:46:08.999Z,98649.59
2023-01-10T19:48:38.308Z,98648.03
2023-01-10T19:51:11.571Z,98667.00
2023-01-10T19:53:42.338Z,98692.44
2023-01-10T19:56:10.313Z,98694.38
2023-01-10T19:58:38.827Z,98714.88
2023-01-10T20:01:15.571Z,98719.47
2023-01-10T20:03:43.651Z,98725.75
2023-01-10T20:06:17.419Z,98725.16
2023-01-10T20:08:46.539Z,98744.13
2023-01-10T20:11:14.916Z,98759.25
2023-01-10T20:13:48.391Z,98747.34
2023-01-10T20:16:22.688Z,98767.19
2023-01-10T20:18:52.059Z,98750.63
2023-01-10T20:21:19.825Z,98756.94
2023-01-10T20:23:47.776Z,98750.78
2023-01-10T20:26:23.696Z,98747.31
2023-01-10T20:28:50.814Z,98756.69
2023-01-10T20:31:21.923Z,98756.75
2023-01-10T20:33:49.712Z,98760.56
2023-01-10T20:36:19.997Z,98767.19
2023-01-10T20:38:46.961Z,98772.44
2023-01-10T20:41:27.100Z,98781.41
2023-01-10T20:43:55.477Z,98785.63
2023-01-10T20:46:30.897Z,98790.22
2023-01-10T20:49:01.338Z,98800.63
2023-01-10T20:51:32.949Z,98820.84
2023-01-10T20:54:00.343Z,98827.69
2023-01-10T20:56:30.371Z,98828.94
2023-01-10T20:58:58.721Z,98832.69
2023-01-10T21:01:35.743Z,98843.13
2023-01-10T21:04:06.468Z,98846.84
2023-01-10T21:06:34.804Z,98856.44
2023-01-10T21:09:02.120Z,98868.09
2023-01-10T21:11:29.362Z,98873.91
2023-01-10T21:13:56.596Z,98875.78
2023-01-10T21:16:24.250Z,98877.88
2023-01-10T21:18:51.124Z,98885.13
2023-01-10T21:21:22.758Z,98884.09
2023-01-10T21:23:50.538Z,98890.94
2023-01-10T21:26:17.541Z,98890.72
2023-01-10T21:28:49.329Z,98893.66
2023-01-10T21:31:21.622Z,98899.44
2023-01-10T21:33:49.801Z,98903.00
2023-01-10T21:36:17.404Z,98908.38
2023-01-10T21:38:45.151Z,98919.19
2023-01-10T21:41:36.939Z,98931.22
2023-01-10T21:44:06.167Z,98926.66
2023-01-10T21:46:33.239Z,98946.78
2023-01-10T21:49:02.180Z,98937.03
2023-01-10T21:51:29.078Z,98946.19
2023-01-10T21:53:55.951Z,98953.44
2023-01-10T21:56:22.896Z,98953.69
2023-01-10T21:58:49.682Z,98952.44
2023-01-10T22:01:16.773Z,98957.25
2023-01-10T22:03:45.860Z,98962.03
2023-01-10T22:06:13.376Z,98974.91
2023-01-10T22:08:40.374Z,98991.50
2023-01-10T22:11:09.220Z,98994.41
2023-01-10T22:13:37.700Z,98992.31
2023-01-10T22:16:04.992Z,98987.94
2023-01-10T22:18:32.259Z,98995.25
2023-01-10T22:20:59.902Z,99003.31
2023-01-10T22:23:30.432Z,98996.03
2023-01-10T22:26:07.284Z,98998.97
2023-01-10T22:28:34.589Z,99010.63
2023-01-10T22:31:02.331Z,99013.50
2023-01-10T22:33:35.333Z,99024.31
2023-01-10T22:36:15.327Z,99024.56
2023-01-10T22:38:42.979Z,99023.53
2023-01-10T22:41:17.702Z,99027.69
2023-01-10T22:43:45.451Z,99036.63
2023-01-10T22:46:16.037Z,99032.03
2023-01-10T22:48:44.024Z,99031.00
2023-01-10T22:51:11.187Z,99043.91
2023-01-10T22:53:38.025Z,99059.88
2023-01-10T22:56:07.923Z,99050.56
2023-01-10T22:58:34.794Z,99057.59
2023-01-10T23:01:07.410Z,99069.88
2023-01-10T23:03:34.967Z,99079.22
2023-01-10T23:06:01.925Z,99082.75
2023-01-10T23:08:28.981Z,99091.22
2023-01-10T23:10:55.829Z,99097.88
2023-01-10T23:13:24.939Z,99101.19
2023-01-10T23:16:03.284Z,99119.84
2023-01-10T23:18:30.974Z,99127.34
2023-01-10T23:20:58.452Z,99138.94
2023-01-10T23:23:26.431Z,99117.97
2023-01-10T23:26:12.082Z,99134.53
2023-01-10T23:28:47.139Z,99141.72
2023-01-10T23:31:23.873Z,99138.88
2023-01-10T23:33:52.414Z,99154.81
2023-01-10T23:36:19.753Z,99158.75
2023-01-10T23:38:46.661Z,99151.41
2023-01-10T23:41:13.518Z,99162.34
2023-01-10T23:43:40.636Z,99171.84
2023-01-10T23:46:07.877Z,99182.38
2023-01-10T23:48:35.500Z,99181.69
2023-01-10T23:51:02.558Z,99172.31
2023-01-10T23:53:29.381Z,99189.09
2023-01-10T23:55:57.105Z,99189.28
2023-01-10T23:58:23.904Z,99194.81
